Time;durP1;ratioP1;P1;durP2;ratioP2;P2;SDS_P1;SDS_P2;PMS_P1;PMS_P2;Temp;Humidity;BMP_temperature;BMP_pressure;BME280_temperature;BME280_humidity;BME280_pressure;Samples;Min_cycle;Max_cycle;Signal;HPM_P1;HPM_P2
2021/12/26 07:40:58;;;;;;;;;13.33;12.33;;;;;11.12;74.87;99952.31;5822096;22;46398;-91
2021/12/26 07:43:23;;;;;;;;;12.67;11.33;;;;;11.13;75.46;99956.72;4951848;28;45460;-92
2021/12/26 07:45:48;;;;;;;;;16.67;13.33;;;;;11.14;75.45;99951.50;4970568;28;45386;-90
2021/12/26 07:48:14;;;;;;;;;14.33;12.33;;;;;11.18;75.46;99958.63;4953256;28;45558;-89
2021/12/26 07:50:39;;;;;;;;;11.00;11.00;;;;;11.18;75.41;99947.25;4972863;28;46435;-90
2021/12/26 07:53:10;;;;;;;;;9.33;8.33;;;;;11.18;75.18;99948.13;4954098;28;45565;-90
2021/12/26 07:55:35;;;;;;;;;8.33;8.33;;;;;11.20;75.18;99952.53;4955176;28;45497;-90
2021/12/26 07:58:01;;;;;;;;;11.00;9.33;;;;;11.22;75.41;99951.75;4969209;28;45339;-90
2021/12/26 08:00:26;;;;;;;;;15.33;13.00;;;;;11.25;74.96;99954.47;4971755;28;46688;-90
2021/12/26 08:02:52;;;;;;;;;12.33;11.33;;;;;11.28;75.29;99962.44;4955755;28;45524;-90
2021/12/26 08:05:18;;;;;;;;;10.67;10.00;;;;;11.28;75.34;99965.06;4953190;28;45420;-90
2021/12/26 08:07:43;;;;;;;;;14.67;12.67;;;;;11.29;75.35;99961.59;4970318;28;45480;-90
2021/12/26 08:10:09;;;;;;;;;12.00;11.33;;;;;11.34;74.94;99969.59;4968953;28;48247;-90
2021/12/26 08:12:36;;;;;;;;;13.33;11.33;;;;;11.34;75.52;99969.59;4982744;28;45470;-90
2021/12/26 08:15:02;;;;;;;;;12.67;11.67;;;;;11.39;75.33;99967.13;4972851;28;45470;-90
2021/12/26 08:17:29;;;;;;;;;13.33;12.00;;;;;11.36;75.35;99960.03;4955494;28;45710;-90
2021/12/26 08:19:54;;;;;;;;;13.00;9.67;;;;;11.41;75.38;99962.81;4970400;28;46426;-90
2021/12/26 08:22:20;;;;;;;;;11.33;11.00;;;;;11.42;75.26;99966.28;4969740;28;45390;-89
2021/12/26 08:24:46;;;;;;;;;12.00;10.33;;;;;11.46;75.09;99970.81;4963241;28;45476;-90
2021/12/26 08:27:11;;;;;;;;;15.00;13.67;;;;;11.50;75.31;99976.19;4951581;28;45365;-89
2021/12/26 08:29:37;;;;;;;;;16.00;15.33;;;;;11.46;75.14;99966.47;4954425;28;47839;-90
2021/12/26 08:32:04;;;;;;;;;15.00;12.00;;;;;11.53;75.05;99975.41;4968694;28;45630;-91
2021/12/26 08:34:29;;;;;;;;;16.33;11.00;;;;;11.56;75.15;99982.47;4958488;28;45545;-88
2021/12/26 08:37:00;;;;;;;;;14.67;12.00;;;;;11.52;74.94;99978.88;4954505;28;45440;-89
2021/12/26 08:39:32;;;;;;;;;19.33;14.33;;;;;11.57;74.59;99987.78;4968925;28;45471;-88
2021/12/26 08:41:59;;;;;;;;;16.67;12.67;;;;;11.54;74.98;99986.81;4971451;28;45806;-88
2021/12/26 08:44:24;;;;;;;;;15.33;12.00;;;;;11.54;75.07;99984.19;4972874;28;45446;-88
2021/12/26 08:46:51;;;;;;;;;17.67;12.33;;;;;11.57;74.70;99992.16;4972538;28;45453;-89
2021/12/26 08:49:17;;;;;;;;;13.67;13.67;;;;;11.54;74.48;99984.19;4956616;28;53618;-89
2021/12/26 08:51:43;;;;;;;;;14.00;12.00;;;;;11.57;75.10;100000.03;4944615;28;49074;-89
2021/12/26 08:54:09;;;;;;;;;12.00;11.67;;;;;11.55;75.12;99997.34;4972382;28;45564;-88
2021/12/26 08:56:35;;;;;;;;;19.67;13.00;;;;;11.60;74.30;99998.38;4976328;28;45533;-89
2021/12/26 08:59:01;;;;;;;;;14.33;14.00;;;;;11.63;75.03;99997.59;4957286;28;48700;-88
2021/12/26 09:01:27;;;;;;;;;17.33;15.33;;;;;11.66;75.25;99991.53;4974842;28;45443;-89
2021/12/26 09:03:52;;;;;;;;;20.67;16.67;;;;;11.69;74.61;99991.63;4972528;28;45366;-94
2021/12/26 09:06:18;;;;;;;;;18.00;12.33;;;;;11.75;75.13;100004.06;4973443;28;45726;-90
2021/12/26 09:08:43;;;;;;;;;12.00;10.67;;;;;11.78;74.47;100001.47;4958365;28;47381;-89
2021/12/26 09:11:09;;;;;;;;;14.67;14.67;;;;;11.83;75.12;100008.66;4953884;28;49135;-89
2021/12/26 09:13:35;;;;;;;;;14.00;11.00;;;;;11.85;74.79;100013.97;4973943;28;45477;-88
2021/12/26 09:16:01;;;;;;;;;17.33;11.67;;;;;11.91;74.93;100011.50;4970936;28;45578;-89
2021/12/26 09:18:26;;;;;;;;;12.00;12.00;;;;;11.94;74.87;100008.97;4958247;28;47429;-89
2021/12/26 09:20:52;;;;;;;;;16.00;12.33;;;;;11.98;74.92;100009.97;4955630;28;45551;-87
2021/12/26 09:23:17;;;;;;;;;15.67;13.00;;;;;12.01;74.39;100004.75;4970494;28;47480;-88
2021/12/26 09:25:43;;;;;;;;;15.33;11.33;;;;;12.03;74.41;100012.72;4956390;28;45581;-89
2021/12/26 09:28:09;;;;;;;;;14.00;11.00;;;;;12.04;73.83;100014.47;4954317;28;48234;-89
2021/12/26 09:30:35;;;;;;;;;12.00;11.00;;;;;12.01;73.71;100022.31;4973601;28;45588;-91
2021/12/26 09:33:00;;;;;;;;;12.33;10.67;;;;;12.00;73.90;100017.88;4988589;28;45789;-89
2021/12/26 09:35:26;;;;;;;;;12.33;12.33;;;;;12.02;74.55;100014.44;4956890;28;45587;-94
2021/12/26 09:37:51;;;;;;;;;11.33;9.00;;;;;12.03;74.38;100016.25;4947740;28;47276;-89
2021/12/26 09:40:18;;;;;;;;;11.67;9.00;;;;;12.09;74.51;100017.22;4950856;28;45462;-89
2021/12/26 09:42:44;;;;;;;;;10.00;10.00;;;;;12.11;74.20;100012.94;4955937;28;45482;-89
2021/12/26 09:45:11;;;;;;;;;11.67;10.67;;;;;12.17;74.43;100028.88;4973098;28;45505;-90
2021/12/26 09:47:37;;;;;;;;;12.00;11.00;;;;;12.20;74.18;100020.19;4954111;28;48477;-88
2021/12/26 09:50:04;;;;;;;;;18.33;13.00;;;;;12.23;74.41;100021.19;4955780;28;45635;-89
2021/12/26 09:52:29;;;;;;;;;8.67;8.67;;;;;12.26;74.04;100016.00;4970484;28;45607;-88
2021/12/26 09:54:54;;;;;;;;;10.67;8.33;;;;;12.27;73.80;100017.75;4972223;28;45696;-88
2021/12/26 09:57:20;;;;;;;;;10.67;9.67;;;;;12.29;73.71;100015.19;4970269;28;52722;-88
2021/12/26 09:59:48;;;;;;;;;11.00;9.00;;;;;12.35;74.11;100017.97;4955168;28;45621;-88
2021/12/26 10:02:14;;;;;;;;;10.00;10.00;;;;;12.40;73.52;100020.72;4955465;28;45307;-87
2021/12/26 10:04:42;;;;;;;;;13.67;12.00;;;;;12.43;74.05;100022.53;4971314;28;45294;-89
2021/12/26 10:07:13;;;;;;;;;10.33;10.00;;;;;12.46;73.92;100022.63;4972893;28;45478;-88
2021/12/26 10:09:45;;;;;;;;;9.67;8.67;;;;;12.47;73.59;100027.91;4969359;28;45496;-88
2021/12/26 10:12:14;;;;;;;;;9.00;9.00;;;;;12.47;73.49;100029.69;4968684;28;45348;-87
2021/12/26 10:14:43;;;;;;;;;13.00;11.67;;;;;12.43;73.41;100012.91;4956241;28;45425;-89
2021/12/26 10:17:12;;;;;;;;;14.33;12.00;;;;;12.51;73.40;100021.91;4952544;28;47571;-88
2021/12/26 10:19:41;;;;;;;;;9.33;9.33;;;;;12.48;73.43;100010.38;4972464;28;45481;-88
2021/12/26 10:22:08;;;;;;;;;10.00;10.00;;;;;12.52;74.05;100004.38;4954646;28;45823;-88
2021/12/26 10:24:42;;;;;;;;;10.67;10.00;;;;;12.47;73.52;99996.34;4965263;28;45711;-88
2021/12/26 10:27:10;;;;;;;;;12.67;9.33;;;;;12.42;73.08;99984.78;4972001;28;45631;-91
2021/12/26 10:29:47;;;;;;;;;12.67;10.00;;;;;12.48;73.26;100005.13;4956515;28;45438;-93
2021/12/26 10:32:25;;;;;;;;;12.00;9.00;;;;;12.42;73.26;99984.78;4955433;28;45482;-89
2021/12/26 10:35:04;;;;;;;;;10.67;10.33;;;;;12.47;73.35;100006.00;4967586;28;45573;-92
2021/12/26 10:37:42;;;;;;;;;10.67;9.33;;;;;12.50;72.80;99999.03;4970879;28;46626;-91
2021/12/26 10:40:17;;;;;;;;;9.00;9.00;;;;;12.47;73.26;99988.44;4969444;28;45493;-92
2021/12/26 10:42:51;;;;;;;;;9.33;7.67;;;;;12.54;73.52;99991.22;4955006;28;45379;-91
2021/12/26 10:45:20;;;;;;;;;5.67;4.67;;;;;12.55;73.29;99983.38;4952702;28;45492;-89
2021/12/26 10:47:59;;;;;;;;;11.67;11.33;;;;;12.62;73.56;99997.59;4952525;28;48107;-93
2021/12/26 10:50:26;;;;;;;;;11.00;10.00;;;;;12.62;73.45;99984.44;4970948;28;45385;-92
2021/12/26 10:53:01;;;;;;;;;10.33;8.67;;;;;12.62;73.11;99987.06;4971496;28;45571;-93
2021/12/26 10:55:37;;;;;;;;;12.33;9.67;;;;;12.59;72.81;99987.88;4966876;28;45587;-92
2021/12/26 10:58:05;;;;;;;;;10.67;10.67;;;;;12.49;73.13;99977.97;4954046;28;47256;-91
2021/12/26 11:00:33;;;;;;;;;10.00;10.00;;;;;12.39;73.45;99977.75;4987162;28;46089;-93
2021/12/26 11:03:02;;;;;;;;;11.00;11.00;;;;;12.32;74.12;99973.16;4948855;28;45522;-91
2021/12/26 11:05:39;;;;;;;;;11.67;10.00;;;;;12.31;74.03;99979.28;4956278;28;45387;-93
2021/12/26 11:08:13;;;;;;;;;10.33;10.33;;;;;12.27;74.68;99980.03;4950083;28;47440;-94
2021/12/26 11:10:48;;;;;;;;;13.67;10.33;;;;;12.16;75.11;99974.50;4948710;28;45647;-94
2021/12/26 11:13:20;;;;;;;;;13.67;10.67;;;;;12.14;75.89;99981.44;4951028;28;45468;-93
2021/12/26 11:15:46;;;;;;;;;12.67;10.33;;;;;11.96;76.11;99973.09;4954075;28;45478;-93
2021/12/26 11:18:18;;;;;;;;;10.67;10.67;;;;;11.92;77.07;99979.13;4954276;28;46516;-94
2021/12/26 11:20:56;;;;;;;;;10.67;10.33;;;;;11.89;77.11;99993.91;4957492;28;45509;-94
2021/12/26 11:23:28;;;;;;;;;13.67;11.00;;;;;11.85;77.71;99995.59;4956127;28;45531;-95
2021/12/26 11:26:00;;;;;;;;;12.00;11.67;;;;;11.79;77.39;99991.03;4953906;28;46049;-94
2021/12/26 11:28:30;;;;;;;;;10.00;10.00;;;;;11.82;77.99;99985.88;4963185;28;46469;-94
2021/12/26 11:30:59;;;;;;;;;13.67;11.33;;;;;11.88;78.19;99986.88;4987150;28;49553;-93
2021/12/26 11:33:25;;;;;;;;;11.67;9.67;;;;;11.87;77.62;99972.84;4962350;28;45485;-93
2021/12/26 11:35:52;;;;;;;;;16.67;12.67;;;;;11.90;78.26;99978.19;4945421;28;45609;-93
2021/12/26 11:38:21;;;;;;;;;10.67;8.67;;;;;11.91;78.67;99968.53;4974506;28;46414;-95
2021/12/26 11:40:50;;;;;;;;;10.00;10.00;;;;;12.03;77.62;99987.31;4990410;28;45475;-95
2021/12/26 11:43:30;;;;;;;;;8.33;8.00;;;;;12.06;78.32;99987.38;4966693;28;44860;-96
2021/12/26 11:46:10;;;;;;;;;5.00;5.00;;;;;12.11;78.01;99984.00;4993603;28;45382;-96
2021/12/26 11:48:48;;;;;;;;;6.33;6.33;;;;;12.14;78.01;99981.44;4981250;28;46691;-96
2021/12/26 11:51:58;;;;;;;;;9.00;8.33;;;;;12.14;77.77;99987.59;4987336;28;45434;-95
2021/12/26 11:54:42;;;;;;;;;8.00;8.00;;;;;12.18;78.15;99981.59;4989344;28;44853;-95
2021/12/26 11:57:26;;;;;;;;;6.00;6.00;;;;;12.26;78.42;99973.91;4967918;28;45334;-96
2021/12/26 11:59:57;;;;;;;;;11.00;10.00;;;;;12.34;78.09;99979.38;4987722;28;46403;-94
2021/12/26 12:02:42;;;;;;;;;9.67;7.67;;;;;12.42;77.97;99973.41;4980078;28;45568;-92
2021/12/26 12:05:21;;;;;;;;;12.67;11.67;;;;;12.46;78.37;99962.97;4965452;28;45626;-94
2021/12/26 12:08:03;;;;;;;;;9.33;8.67;;;;;12.55;78.47;99959.66;4957334;28;46977;-91
2021/12/26 12:10:54;;;;;;;;;10.67;9.67;;;;;12.89;78.25;99961.31;4952913;28;48337;-94
2021/12/26 12:13:22;;;;;;;;;12.00;9.67;;;;;13.16;78.33;99958.44;4964669;28;45523;-90
2021/12/26 12:16:01;;;;;;;;;7.33;7.33;;;;;13.48;78.37;99962.59;4956178;28;45597;-91
2021/12/26 12:18:26;;;;;;;;;8.33;8.33;;;;;13.83;77.88;99960.69;4983235;28;46007;-92
2021/12/26 12:21:16;;;;;;;;;9.67;6.67;;;;;14.11;75.27;99950.66;4977250;28;45726;-91
2021/12/26 12:24:13;;;;;;;;;4.67;4.67;;;;;14.16;75.69;99956.91;4959498;28;46237;-91
2021/12/26 12:26:56;;;;;;;;;8.00;6.00;;;;;14.36;75.82;99952.81;4961492;28;45303;-95
2021/12/26 12:29:21;;;;;;;;;4.67;4.33;;;;;14.49;75.52;99949.53;4958583;28;45401;-93
2021/12/26 12:31:47;;;;;;;;;5.33;4.00;;;;;14.59;75.30;99949.66;4957569;28;47417;-93
2021/12/26 12:34:13;;;;;;;;;6.00;5.00;;;;;14.63;74.82;99936.56;4955099;28;45485;-93
2021/12/26 12:36:45;;;;;;;;;7.33;6.00;;;;;14.80;74.93;99929.72;4974975;28;45368;-93
2021/12/26 12:39:22;;;;;;;;;1.00;1.00;;;;;15.02;72.93;99938.91;4958719;28;45375;-94
2021/12/26 12:41:52;;;;;;;;;5.33;4.33;;;;;14.87;73.73;99921.06;4977245;28;48995;-93
2021/12/26 12:44:34;;;;;;;;;5.00;5.00;;;;;14.80;73.70;99919.16;4974140;28;45582;-94
2021/12/26 12:47:05;;;;;;;;;4.50;4.00;;;;;14.63;73.39;99930.38;4968723;28;45438;-95
2021/12/26 12:49:45;;;;;;;;;3.00;3.00;;;;;14.47;73.56;99927.50;4954905;28;45582;-93
2021/12/26 12:52:47;;;;;;;;;3.33;2.33;;;;;14.36;73.14;99932.59;4971350;28;47828;-91
2021/12/26 12:55:19;;;;;;;;;4.67;2.67;;;;;14.21;73.24;99920.03;4970921;28;45551;-92
2021/12/26 12:57:51;;;;;;;;;3.00;3.00;;;;;14.23;73.54;99933.25;4974840;28;45394;-92
2021/12/26 13:00:26;;;;;;;;;3.33;2.00;;;;;14.18;73.80;99926.13;4975551;28;45669;-92
2021/12/26 13:03:00;;;;;;;;;3.00;3.00;;;;;14.23;73.97;99918.28;4966149;28;45568;-90
2021/12/26 13:05:28;;;;;;;;;3.00;3.00;;;;;14.30;73.72;99935.16;4974310;28;45366;-91
2021/12/26 13:07:58;;;;;;;;;3.00;3.00;;;;;14.22;73.10;99928.84;4975487;28;45339;-92
2021/12/26 13:10:23;;;;;;;;;2.00;2.00;;;;;14.01;72.51;99917.03;4950699;28;45923;-93
2021/12/26 13:12:49;;;;;;;;;1.67;1.67;;;;;13.88;73.13;99921.22;4956044;28;46481;-92
2021/12/26 13:15:15;;;;;;;;;2.33;2.33;;;;;13.76;73.59;99921.88;4956507;28;56346;-93
2021/12/26 13:17:43;;;;;;;;;2.00;2.00;;;;;13.60;72.80;99919.84;4969450;28;45424;-92
2021/12/26 13:20:15;;;;;;;;;1.00;1.00;;;;;13.52;74.25;99911.75;4973242;28;45620;-92
2021/12/26 13:22:47;;;;;;;;;2.33;2.33;;;;;13.54;74.42;99911.75;4955492;28;47494;-91
2021/12/26 13:25:25;;;;;;;;;2.33;1.67;;;;;13.58;74.55;99913.63;4956234;28;45454;-91
2021/12/26 13:27:51;;;;;;;;;2.33;2.33;;;;;13.44;72.97;99910.69;4959703;28;45517;-92
2021/12/26 13:30:16;;;;;;;;;2.00;2.00;;;;;13.30;74.15;99915.66;4957043;28;45541;-92
2021/12/26 13:32:42;;;;;;;;;2.00;2.00;;;;;13.23;74.32;99911.13;4973091;28;51356;-91
2021/12/26 13:35:09;;;;;;;;;3.00;2.00;;;;;13.17;75.21;99910.16;4971658;28;45509;-92
2021/12/26 13:37:35;;;;;;;;;2.33;1.00;;;;;13.14;74.75;99903.94;4956559;28;45546;-92
2021/12/26 13:40:03;;;;;;;;;2.33;2.33;;;;;13.22;73.89;99917.28;4956252;28;45648;-91
2021/12/26 13:42:28;;;;;;;;;0.33;0.33;;;;;13.23;73.60;99905.88;4968914;28;47433;-92
2021/12/26 13:44:54;;;;;;;;;3.67;3.00;;;;;13.26;74.75;99904.19;4958436;28;45421;-91
2021/12/26 13:47:20;;;;;;;;;2.00;2.00;;;;;13.29;74.56;99909.53;4959093;28;45332;-92
2021/12/26 13:49:46;;;;;;;;;3.33;2.00;;;;;13.29;74.76;99909.53;4957909;28;45561;-91
2021/12/26 13:52:19;;;;;;;;;2.00;2.00;;;;;13.29;74.37;99906.91;4958148;28;48373;-91
2021/12/26 13:54:50;;;;;;;;;4.00;3.00;;;;;13.45;74.64;99908.94;4990135;28;45370;-91
2021/12/26 13:57:20;;;;;;;;;4.00;2.00;;;;;13.54;74.52;99905.59;4986575;28;45285;-91
2021/12/26 13:59:50;;;;;;;;;5.67;3.00;;;;;13.60;73.97;99911.94;4970315;28;45552;-92
2021/12/26 14:02:32;;;;;;;;;3.00;2.00;;;;;13.60;74.22;99917.19;4990343;28;47212;-91
2021/12/26 14:05:11;;;;;;;;;4.00;2.00;;;;;13.46;73.62;99905.44;4956448;28;45946;-92
2021/12/26 14:07:41;;;;;;;;;1.00;1.00;;;;;13.41;74.36;99911.53;4991436;28;45366;-93
2021/12/26 14:10:19;;;;;;;;;6.00;3.67;;;;;13.38;73.46;99916.72;4956580;28;45903;-93
2021/12/26 14:12:51;;;;;;;;;3.00;3.00;;;;;13.42;73.32;99915.06;4945977;28;48554;-92
2021/12/26 14:15:31;;;;;;;;;10.00;4.00;;;;;13.56;73.98;99911.78;4957106;28;45715;-93
2021/12/26 14:18:18;;;;;;;;;3.67;3.67;;;;;13.65;73.09;99911.13;4957674;28;45563;-91
2021/12/26 14:20:57;;;;;;;;;2.00;2.00;;;;;13.58;73.40;99908.34;4952785;28;45478;-91
2021/12/26 14:23:26;;;;;;;;;3.00;3.00;;;;;13.51;73.84;99904.69;4974510;28;47226;-91
2021/12/26 14:25:55;;;;;;;;;1.00;1.00;;;;;13.53;72.41;99920.50;4956259;28;45666;-95
2021/12/26 14:28:22;;;;;;;;;1.00;1.00;;;;;13.41;72.24;99926.44;4956427;28;45414;-92
2021/12/26 14:30:49;;;;;;;;;1.33;1.00;;;;;13.32;72.19;99928.91;4958697;28;45540;-92
2021/12/26 14:33:15;;;;;;;;;4.00;4.00;;;;;13.24;71.85;99932.25;4975516;28;47285;-92
2021/12/26 14:35:45;;;;;;;;;3.00;2.00;;;;;13.21;72.59;99931.28;4958358;28;45788;-92
2021/12/26 14:38:14;;;;;;;;;1.67;1.67;;;;;13.09;71.70;99932.78;4975673;28;45478;-92
2021/12/26 14:40:59;;;;;;;;;5.00;2.67;;;;;13.06;72.06;99941.56;4956162;28;45497;-91
2021/12/26 14:43:25;;;;;;;;;3.67;2.00;;;;;12.95;71.61;99924.59;4957975;28;48341;-92
2021/12/26 14:45:56;;;;;;;;;2.67;1.67;;;;;12.88;72.49;99931.50;4958272;28;46029;-92
2021/12/26 14:48:29;;;;;;;;;1.00;1.00;;;;;12.88;72.57;99939.41;4956244;28;45479;-91
2021/12/26 14:51:06;;;;;;;;;1.00;1.00;;;;;12.86;73.03;99938.44;4965034;28;45453;-91
2021/12/26 14:53:31;;;;;;;;;2.00;2.00;;;;;12.78;72.66;99925.09;4956597;28;47424;-92
2021/12/26 14:56:03;;;;;;;;;2.67;2.00;;;;;12.81;72.24;99932.19;4956049;28;46029;-93
2021/12/26 14:58:50;;;;;;;;;3.00;2.33;;;;;12.78;72.55;99930.38;4957027;28;45400;-92
2021/12/26 15:01:20;;;;;;;;;2.00;1.00;;;;;12.78;73.18;99933.00;4954672;28;45504;-93
2021/12/26 15:03:46;;;;;;;;;2.67;2.00;;;;;12.75;72.46;99932.94;4951469;28;47087;-93
2021/12/26 15:06:12;;;;;;;;;2.00;2.00;;;;;12.75;73.25;99932.94;4973286;28;45556;-92
2021/12/26 15:08:38;;;;;;;;;5.00;3.33;;;;;12.69;72.56;99933.69;4956210;28;45418;-94
2021/12/26 15:11:06;;;;;;;;;4.00;2.33;;;;;12.67;73.63;99922.25;4951502;28;45634;-94
2021/12/26 15:13:37;;;;;;;;;3.00;3.00;;;;;12.72;72.49;99941.66;4987243;28;48068;-92
2021/12/26 15:16:03;;;;;;;;;4.00;2.33;;;;;12.66;72.33;99937.97;4954601;28;45694;-94
2021/12/26 15:18:31;;;;;;;;;4.67;3.00;;;;;12.60;73.50;99928.22;4955560;28;45656;-92
2021/12/26 15:21:01;;;;;;;;;3.00;2.33;;;;;12.60;73.39;99939.63;4956424;28;45485;-91
2021/12/26 15:23:30;;;;;;;;;2.33;2.33;;;;;12.60;74.11;99941.38;4955155;28;48206;-92
2021/12/26 15:26:00;;;;;;;;;2.33;2.00;;;;;12.62;73.41;99943.19;4955417;28;45764;-93
2021/12/26 15:28:33;;;;;;;;;2.67;1.00;;;;;12.62;73.50;99944.94;4972097;28;45516;-94
2021/12/26 15:31:03;;;;;;;;;4.00;2.00;;;;;12.63;72.79;99938.78;4986762;28;45424;-94
2021/12/26 15:33:49;;;;;;;;;2.00;2.00;;;;;12.61;73.19;99944.03;4953219;28;48055;-93
2021/12/26 15:36:30;;;;;;;;;3.67;3.00;;;;;12.57;72.98;99951.84;4954284;28;46216;-93
2021/12/26 15:39:00;;;;;;;;;2.00;2.00;;;;;12.53;72.71;99945.59;4951800;28;45301;-92
2021/12/26 15:41:32;;;;;;;;;3.00;3.00;;;;;12.49;72.29;99938.47;4970382;28;45859;-94
2021/12/26 15:43:58;;;;;;;;;2.00;2.00;;;;;12.52;72.61;99946.47;4950344;28;47441;-92
2021/12/26 15:46:25;;;;;;;;;2.67;2.33;;;;;12.46;73.24;99939.28;4952141;28;45521;-95
2021/12/26 15:48:51;;;;;;;;;8.00;5.67;;;;;12.44;72.56;99948.00;4965260;28;45423;-88
2021/12/26 15:51:16;;;;;;;;;32.67;26.67;;;;;12.43;72.69;99951.47;4957084;28;45656;-91
2021/12/26 15:53:42;;;;;;;;;13.67;11.33;;;;;12.33;73.39;99947.72;4947858;28;47843;-91
2021/12/26 15:56:09;;;;;;;;;19.00;17.67;;;;;12.26;72.86;99944.06;4969106;28;45522;-91
2021/12/26 15:58:34;;;;;;;;;34.67;25.33;;;;;12.23;72.43;99954.50;4983297;28;45446;-91
2021/12/26 16:01:00;;;;;;;;;22.33;20.00;;;;;12.13;73.16;99950.72;4953304;28;45429;-90
2021/12/26 16:03:25;;;;;;;;;13.67;13.00;;;;;12.05;72.83;99953.13;4968149;28;46257;-91
2021/12/26 16:05:50;;;;;;;;;16.67;12.67;;;;;12.01;73.27;99954.78;4954855;28;45578;-92
2021/12/26 16:08:16;;;;;;;;;14.33;10.67;;;;;12.01;73.55;99957.41;4952130;28;45425;-92
2021/12/26 16:10:42;;;;;;;;;15.00;12.33;;;;;12.00;74.00;99962.66;4952770;28;45395;-91
2021/12/26 16:13:08;;;;;;;;;16.00;14.00;;;;;11.96;74.24;99954.66;4970354;28;46198;-91
2021/12/26 16:15:34;;;;;;;;;14.00;12.00;;;;;12.03;74.22;99963.63;4950870;28;46158;-91
2021/12/26 16:17:59;;;;;;;;;21.00;18.33;;;;;12.04;74.23;99956.59;4952700;28;45535;-91
2021/12/26 16:20:25;;;;;;;;;19.00;17.00;;;;;12.04;74.64;99956.59;4953515;28;45533;-90
2021/12/26 16:22:51;;;;;;;;;12.67;11.00;;;;;12.09;74.30;99957.63;4949997;28;46418;-91
2021/12/26 16:25:17;;;;;;;;;13.33;11.33;;;;;12.05;74.18;99951.41;4951990;28;45567;-90
2021/12/26 16:27:44;;;;;;;;;13.00;11.33;;;;;12.09;74.31;99952.34;4967579;28;45545;-90
2021/12/26 16:30:12;;;;;;;;;7.00;5.67;;;;;12.11;74.22;99955.91;4951842;28;45652;-90
2021/12/26 16:32:38;;;;;;;;;5.00;4.00;;;;;12.09;73.94;99948.84;4971656;28;45696;-90
2021/12/26 16:35:04;;;;;;;;;11.00;10.00;;;;;12.05;74.29;99948.78;4966207;28;45886;-91
2021/12/26 16:37:30;;;;;;;;;7.33;7.33;;;;;12.02;73.75;99943.44;4949897;28;45476;-91
2021/12/26 16:39:55;;;;;;;;;9.67;8.67;;;;;11.96;74.47;99949.41;4950684;28;45534;-91
2021/12/26 16:42:21;;;;;;;;;10.00;10.00;;;;;11.95;74.21;99962.53;4951849;28;46142;-90
2021/12/26 16:44:46;;;;;;;;;13.67;9.67;;;;;11.87;74.17;99956.16;4954659;28;45925;-91
2021/12/26 16:47:11;;;;;;;;;12.00;11.00;;;;;11.81;74.37;99955.16;4953153;28;45388;-90
2021/12/26 16:49:37;;;;;;;;;9.00;7.33;;;;;11.83;74.55;99973.59;4970211;28;45532;-90
2021/12/26 16:52:03;;;;;;;;;10.00;5.00;;;;;11.76;74.86;99958.50;4967790;28;45466;-90
2021/12/26 16:54:28;;;;;;;;;11.33;11.00;;;;;11.70;74.56;99960.09;4956830;28;45629;-90
2021/12/26 16:56:55;;;;;;;;;8.67;7.00;;;;;11.73;74.61;99975.06;4970644;28;45655;-90
2021/12/26 16:59:21;;;;;;;;;10.33;9.33;;;;;11.71;74.56;99979.41;4952307;28;45430;-91
2021/12/26 17:01:49;;;;;;;;;16.00;12.00;;;;;11.63;74.58;99971.28;4966650;28;45508;-90
2021/12/26 17:04:19;;;;;;;;;5.00;5.00;;;;;11.65;74.19;99977.47;4952375;28;45636;-90
2021/12/26 17:06:47;;;;;;;;;6.33;5.00;;;;;11.60;74.63;99972.09;4972351;28;45551;-92
2021/12/26 17:09:12;;;;;;;;;7.33;7.33;;;;;11.62;74.61;99980.91;4954633;28;45582;-91
2021/12/26 17:11:39;;;;;;;;;6.33;5.33;;;;;11.62;73.85;99982.69;4981296;28;47500;-91
2021/12/26 17:14:05;;;;;;;;;9.67;6.67;;;;;11.60;74.02;99979.09;4969985;28;45590;-92
2021/12/26 17:16:31;;;;;;;;;3.67;3.67;;;;;11.60;73.43;99984.34;4971936;28;45562;-90
2021/12/26 17:18:56;;;;;;;;;9.67;9.33;;;;;11.64;74.54;99987.97;4972177;28;58961;-91
2021/12/26 17:21:22;;;;;;;;;15.33;12.33;;;;;11.66;74.01;99986.25;4945317;28;46604;-92
2021/12/26 17:23:47;;;;;;;;;15.67;13.33;;;;;11.68;74.68;99989.81;4983615;28;45589;-91
2021/12/26 17:26:13;;;;;;;;;20.00;18.00;;;;;11.69;73.79;99989.88;4955226;28;45463;-92
2021/12/26 17:28:38;;;;;;;;;14.67;10.33;;;;;11.67;73.91;99969.66;4973287;28;45406;-92
2021/12/26 17:31:04;;;;;;;;;11.00;10.00;;;;;11.71;74.54;99968.88;4953818;28;48298;-92
2021/12/26 17:33:33;;;;;;;;;13.00;12.33;;;;;11.75;74.29;99975.13;4954478;28;45407;-92
2021/12/26 17:36:03;;;;;;;;;12.67;10.67;;;;;11.69;74.64;99968.84;4960715;28;45603;-91
2021/12/26 17:38:28;;;;;;;;;6.33;5.00;;;;;11.70;73.37;99967.97;4970957;28;45607;-90
2021/12/26 17:40:55;;;;;;;;;4.33;4.33;;;;;11.72;73.94;99975.94;4948400;28;46673;-91
2021/12/26 17:43:22;;;;;;;;;7.00;6.33;;;;;11.68;72.99;99959.16;4979227;28;45485;-90
2021/12/26 17:45:47;;;;;;;;;7.67;5.33;;;;;11.69;73.87;99954.81;4952216;28;46049;-89
2021/12/26 17:48:12;;;;;;;;;5.00;5.00;;;;;11.74;73.01;99958.47;4946091;28;49646;-91
2021/12/26 17:50:38;;;;;;;;;10.33;7.00;;;;;11.73;74.03;99956.66;4951852;28;47472;-91
2021/12/26 17:53:03;;;;;;;;;12.33;9.00;;;;;11.73;73.51;99952.31;4948179;28;45732;-90
2021/12/26 17:55:29;;;;;;;;;13.67;12.33;;;;;11.70;74.59;99959.25;4949966;28;45422;-90
2021/12/26 17:57:54;;;;;;;;;16.67;14.33;;;;;11.70;74.10;99969.75;4967108;28;45532;-90
2021/12/26 18:00:20;;;;;;;;;11.00;10.67;;;;;11.66;74.47;99968.75;4973361;28;46933;-90
2021/12/26 18:02:47;;;;;;;;;19.00;17.00;;;;;11.58;75.00;99952.78;4981396;28;48373;-88
2021/12/26 18:05:13;;;;;;;;;18.67;17.00;;;;;11.59;75.26;99958.91;4948921;28;45669;-91
2021/12/26 18:07:39;;;;;;;;;19.33;14.00;;;;;11.54;75.60;99956.16;4970074;28;45474;-90
2021/12/26 18:10:07;;;;;;;;;8.00;8.00;;;;;11.53;75.32;99962.25;4954583;28;47813;-91
2021/12/26 18:12:33;;;;;;;;;14.33;13.33;;;;;11.52;75.60;99952.59;4971268;28;45612;-93
2021/12/26 18:14:58;;;;;;;;;11.67;10.67;;;;;11.49;75.90;99949.88;4956077;28;45465;-92
2021/12/26 18:17:23;;;;;;;;;17.00;13.00;;;;;11.47;76.29;99938.41;4965390;28;45426;-94
2021/12/26 18:19:49;;;;;;;;;18.67;18.33;;;;;11.48;76.43;99941.09;4953858;28;48069;-93
2021/12/26 18:22:14;;;;;;;;;5.33;5.33;;;;;11.56;75.88;99961.47;4957535;28;46025;-93
2021/12/26 18:24:39;;;;;;;;;12.67;12.67;;;;;11.49;76.60;99940.25;4958268;28;45559;-92
2021/12/26 18:27:05;;;;;;;;;5.00;4.00;;;;;11.49;76.14;99942.88;4973099;28;45395;-93
2021/12/26 18:29:30;;;;;;;;;6.67;4.00;;;;;11.49;76.06;99929.72;4958457;28;46922;-93
2021/12/26 18:31:57;;;;;;;;;3.33;3.33;;;;;11.48;76.03;99940.22;4963972;28;45482;-93
2021/12/26 18:34:24;;;;;;;;;3.00;3.00;;;;;11.47;75.10;99935.78;4957120;28;45583;-93
2021/12/26 18:36:50;;;;;;;;;6.33;6.00;;;;;11.36;75.04;99915.38;4956550;28;45692;-93
2021/12/26 18:39:16;;;;;;;;;9.67;9.67;;;;;11.36;75.46;99922.38;4954986;28;47635;-93
2021/12/26 18:41:41;;;;;;;;;10.33;10.00;;;;;11.35;75.93;99928.44;4979032;28;45480;-95
2021/12/26 18:44:07;;;;;;;;;10.67;8.67;;;;;11.31;75.75;99926.59;4963968;28;45590;-94
2021/12/26 18:46:32;;;;;;;;;9.33;8.67;;;;;11.30;76.15;99925.69;4990594;28;45664;-95
2021/12/26 18:49:00;;;;;;;;;11.00;9.33;;;;;11.35;76.07;99939.84;4966532;28;47219;-93
2021/12/26 18:51:27;;;;;;;;;12.00;8.00;;;;;11.28;75.85;99927.41;4972192;28;45752;-94
2021/12/26 18:53:54;;;;;;;;;5.33;5.00;;;;;11.29;75.18;99937.94;4960577;28;45511;-96
2021/12/26 18:56:22;;;;;;;;;7.67;6.00;;;;;11.25;76.41;99922.94;4975817;28;45524;-93
2021/12/26 18:58:47;;;;;;;;;9.00;9.00;;;;;11.33;75.84;99923.16;4958423;28;46225;-93
2021/12/26 19:01:12;;;;;;;;;12.33;7.67;;;;;11.34;76.20;99924.94;4966686;28;45712;-96
2021/12/26 19:03:38;;;;;;;;;8.00;5.33;;;;;11.28;76.46;99915.16;4954740;28;45393;-94
2021/12/26 19:06:04;;;;;;;;;5.00;5.00;;;;;11.40;76.18;99929.47;4973191;28;45419;-94
2021/12/26 19:08:31;;;;;;;;;5.00;5.00;;;;;11.34;76.21;99916.19;4967865;28;47368;-95
2021/12/26 19:10:57;;;;;;;;;9.67;6.33;;;;;11.43;76.27;99929.56;4957793;28;45818;-95
2021/12/26 19:13:26;;;;;;;;;8.00;5.67;;;;;11.42;76.29;99919.00;4958881;28;46212;-94